sensor_id;sensor_type;location;lat;lon;timestamp;P1;durP1;ratioP1;P2;durP2;ratioP2
6640;SDS011;3356;49.360;8.266;2022-11-15T00:01:20;14.70;;;8.10;;
6640;SDS011;3356;49.360;8.266;2022-11-15T00:03:40;13.57;;;8.40;;
6640;SDS011;3356;49.360;8.266;2022-11-15T00:06:03;13.37;;;8.57;;
6640;SDS011;3356;49.360;8.266;2022-11-15T00:08:23;15.07;;;8.87;;
6640;SDS011;3356;49.360;8.266;2022-11-15T00:10:43;11.23;;;8.73;;
6640;SDS011;3356;49.360;8.266;2022-11-15T00:13:12;13.97;;;9.67;;
6640;SDS011;3356;49.360;8.266;2022-11-15T00:15:34;11.90;;;7.77;;
6640;SDS011;3356;49.360;8.266;2022-11-15T00:17:55;14.10;;;7.83;;
6640;SDS011;3356;49.360;8.266;2022-11-15T00:20:15;9.50;;;7.70;;
6640;SDS011;3356;49.360;8.266;2022-11-15T00:22:36;10.73;;;7.80;;
6640;SDS011;3356;49.360;8.266;2022-11-15T00:24:55;10.97;;;8.30;;
6640;SDS011;3356;49.360;8.266;2022-11-15T00:27:14;13.27;;;8.20;;
6640;SDS011;3356;49.360;8.266;2022-11-15T00:29:34;20.17;;;10.70;;
6640;SDS011;3356;49.360;8.266;2022-11-15T00:31:56;12.57;;;8.73;;
6640;SDS011;3356;49.360;8.266;2022-11-15T00:34:16;14.57;;;8.50;;
6640;SDS011;3356;49.360;8.266;2022-11-15T00:36:35;13.70;;;9.10;;
6640;SDS011;3356;49.360;8.266;2022-11-15T00:38:55;13.27;;;8.33;;
6640;SDS011;3356;49.360;8.266;2022-11-15T00:41:15;11.67;;;8.63;;
6640;SDS011;3356;49.360;8.266;2022-11-15T00:43:35;11.30;;;8.43;;
6640;SDS011;3356;49.360;8.266;2022-11-15T00:45:55;16.37;;;9.53;;
6640;SDS011;3356;49.360;8.266;2022-11-15T00:48:15;15.47;;;8.90;;
6640;SDS011;3356;49.360;8.266;2022-11-15T00:50:34;12.87;;;8.67;;
6640;SDS011;3356;49.360;8.266;2022-11-15T00:52:54;14.43;;;9.13;;
6640;SDS011;3356;49.360;8.266;2022-11-15T00:55:15;13.40;;;8.47;;
6640;SDS011;3356;49.360;8.266;2022-11-15T00:57:35;11.97;;;8.17;;
6640;SDS011;3356;49.360;8.266;2022-11-15T00:59:54;12.53;;;8.67;;
6640;SDS011;3356;49.360;8.266;2022-11-15T01:02:14;9.30;;;8.20;;
6640;SDS011;3356;49.360;8.266;2022-11-15T01:04:34;12.80;;;8.90;;
6640;SDS011;3356;49.360;8.266;2022-11-15T01:06:54;12.17;;;8.30;;
6640;SDS011;3356;49.360;8.266;2022-11-15T01:09:14;13.97;;;9.60;;
6640;SDS011;3356;49.360;8.266;2022-11-15T01:11:33;12.17;;;8.50;;
6640;SDS011;3356;49.360;8.266;2022-11-15T01:13:53;12.80;;;8.03;;
6640;SDS011;3356;49.360;8.266;2022-11-15T01:16:16;11.73;;;8.30;;
6640;SDS011;3356;49.360;8.266;2022-11-15T01:18:37;11.50;;;8.87;;
6640;SDS011;3356;49.360;8.266;2022-11-15T01:20:57;9.10;;;7.53;;
6640;SDS011;3356;49.360;8.266;2022-11-15T01:23:16;11.27;;;8.63;;
6640;SDS011;3356;49.360;8.266;2022-11-15T01:25:36;12.47;;;8.30;;
6640;SDS011;3356;49.360;8.266;2022-11-15T01:27:56;12.07;;;8.20;;
6640;SDS011;3356;49.360;8.266;2022-11-15T01:30:15;10.90;;;7.97;;
6640;SDS011;3356;49.360;8.266;2022-11-15T01:32:35;12.57;;;8.77;;
6640;SDS011;3356;49.360;8.266;2022-11-15T01:34:55;12.47;;;8.70;;
6640;SDS011;3356;49.360;8.266;2022-11-15T01:37:14;10.37;;;8.53;;
6640;SDS011;3356;49.360;8.266;2022-11-15T01:39:34;13.07;;;8.30;;
6640;SDS011;3356;49.360;8.266;2022-11-15T01:41:53;14.53;;;8.60;;
6640;SDS011;3356;49.360;8.266;2022-11-15T01:49:47;15.93;;;9.23;;
6640;SDS011;3356;49.360;8.266;2022-11-15T01:52:12;9.87;;;8.67;;
6640;SDS011;3356;49.360;8.266;2022-11-15T01:54:36;13.50;;;8.67;;
6640;SDS011;3356;49.360;8.266;2022-11-15T01:57:01;11.97;;;8.17;;
6640;SDS011;3356;49.360;8.266;2022-11-15T01:59:25;12.63;;;8.70;;
6640;SDS011;3356;49.360;8.266;2022-11-15T02:01:45;9.27;;;7.77;;
6640;SDS011;3356;49.360;8.266;2022-11-15T02:04:07;13.90;;;9.00;;
6640;SDS011;3356;49.360;8.266;2022-11-15T02:06:32;13.63;;;8.73;;
6640;SDS011;3356;49.360;8.266;2022-11-15T02:08:53;15.07;;;7.50;;
6640;SDS011;3356;49.360;8.266;2022-11-15T02:11:13;10.93;;;7.77;;
6640;SDS011;3356;49.360;8.266;2022-11-15T02:13:33;11.63;;;8.07;;
6640;SDS011;3356;49.360;8.266;2022-11-15T02:18:22;13.83;;;7.90;;
6640;SDS011;3356;49.360;8.266;2022-11-15T02:21:06;10.90;;;7.33;;
6640;SDS011;3356;49.360;8.266;2022-11-15T02:26:19;8.50;;;7.20;;
6640;SDS011;3356;49.360;8.266;2022-11-15T02:29:07;11.90;;;7.30;;
6640;SDS011;3356;49.360;8.266;2022-11-15T02:36:43;10.30;;;6.90;;
6640;SDS011;3356;49.360;8.266;2022-11-15T02:39:20;7.70;;;6.03;;
6640;SDS011;3356;49.360;8.266;2022-11-15T02:41:55;9.37;;;6.40;;
6640;SDS011;3356;49.360;8.266;2022-11-15T02:44:35;11.43;;;6.43;;
6640;SDS011;3356;49.360;8.266;2022-11-15T02:47:02;11.67;;;6.37;;
6640;SDS011;3356;49.360;8.266;2022-11-15T02:49:34;6.67;;;5.10;;
6640;SDS011;3356;49.360;8.266;2022-11-15T02:51:54;9.67;;;5.80;;
6640;SDS011;3356;49.360;8.266;2022-11-15T02:54:15;11.20;;;6.07;;
6640;SDS011;3356;49.360;8.266;2022-11-15T02:56:42;7.77;;;5.70;;
6640;SDS011;3356;49.360;8.266;2022-11-15T02:59:10;7.97;;;5.83;;
6640;SDS011;3356;49.360;8.266;2022-11-15T03:04:04;8.17;;;6.37;;
6640;SDS011;3356;49.360;8.266;2022-11-15T03:09:07;7.50;;;5.77;;
6640;SDS011;3356;49.360;8.266;2022-11-15T03:11:35;8.97;;;5.70;;
6640;SDS011;3356;49.360;8.266;2022-11-15T03:14:19;7.53;;;5.40;;
6640;SDS011;3356;49.360;8.266;2022-11-15T03:19:35;7.77;;;5.73;;
6640;SDS011;3356;49.360;8.266;2022-11-15T03:22:04;9.27;;;5.90;;
6640;SDS011;3356;49.360;8.266;2022-11-15T03:24:28;7.80;;;6.10;;
6640;SDS011;3356;49.360;8.266;2022-11-15T03:26:53;9.43;;;6.50;;
6640;SDS011;3356;49.360;8.266;2022-11-15T03:29:18;9.67;;;6.57;;
6640;SDS011;3356;49.360;8.266;2022-11-15T03:31:43;8.63;;;5.73;;
6640;SDS011;3356;49.360;8.266;2022-11-15T03:34:06;8.37;;;5.83;;
6640;SDS011;3356;49.360;8.266;2022-11-15T03:36:29;8.97;;;6.17;;
6640;SDS011;3356;49.360;8.266;2022-11-15T03:38:53;7.83;;;5.73;;
6640;SDS011;3356;49.360;8.266;2022-11-15T03:41:27;11.63;;;6.40;;
6640;SDS011;3356;49.360;8.266;2022-11-15T03:46:15;10.90;;;6.00;;
6640;SDS011;3356;49.360;8.266;2022-11-15T03:48:43;7.20;;;5.57;;
6640;SDS011;3356;49.360;8.266;2022-11-15T03:51:33;8.03;;;5.57;;
6640;SDS011;3356;49.360;8.266;2022-11-15T03:53:53;7.30;;;5.93;;
6640;SDS011;3356;49.360;8.266;2022-11-15T03:56:13;7.40;;;5.90;;
6640;SDS011;3356;49.360;8.266;2022-11-15T03:58:32;7.27;;;5.70;;
6640;SDS011;3356;49.360;8.266;2022-11-15T04:00:52;8.47;;;6.10;;
6640;SDS011;3356;49.360;8.266;2022-11-15T04:03:12;8.23;;;6.27;;
6640;SDS011;3356;49.360;8.266;2022-11-15T04:05:31;8.10;;;5.50;;
6640;SDS011;3356;49.360;8.266;2022-11-15T04:07:51;7.57;;;5.57;;
6640;SDS011;3356;49.360;8.266;2022-11-15T04:10:11;7.20;;;5.43;;
6640;SDS011;3356;49.360;8.266;2022-11-15T04:12:34;8.73;;;5.70;;
6640;SDS011;3356;49.360;8.266;2022-11-15T04:15:03;8.53;;;5.87;;
6640;SDS011;3356;49.360;8.266;2022-11-15T04:17:28;9.53;;;6.10;;
6640;SDS011;3356;49.360;8.266;2022-11-15T04:19:47;8.13;;;5.93;;
6640;SDS011;3356;49.360;8.266;2022-11-15T04:22:26;12.83;;;6.80;;
6640;SDS011;3356;49.360;8.266;2022-11-15T04:25:04;9.20;;;5.83;;
6640;SDS011;3356;49.360;8.266;2022-11-15T04:27:24;6.73;;;5.73;;
6640;SDS011;3356;49.360;8.266;2022-11-15T04:29:43;8.10;;;5.37;;
6640;SDS011;3356;49.360;8.266;2022-11-15T04:32:03;8.00;;;5.90;;
6640;SDS011;3356;49.360;8.266;2022-11-15T04:34:24;9.60;;;6.20;;
6640;SDS011;3356;49.360;8.266;2022-11-15T04:36:44;10.43;;;7.33;;
6640;SDS011;3356;49.360;8.266;2022-11-15T04:39:22;12.73;;;7.10;;
6640;SDS011;3356;49.360;8.266;2022-11-15T04:41:42;14.03;;;7.40;;
6640;SDS011;3356;49.360;8.266;2022-11-15T04:44:02;11.77;;;7.17;;
6640;SDS011;3356;49.360;8.266;2022-11-15T04:46:22;10.63;;;7.23;;
6640;SDS011;3356;49.360;8.266;2022-11-15T04:48:42;12.10;;;7.60;;
6640;SDS011;3356;49.360;8.266;2022-11-15T04:51:02;14.13;;;7.33;;
6640;SDS011;3356;49.360;8.266;2022-11-15T04:53:22;7.93;;;5.87;;
6640;SDS011;3356;49.360;8.266;2022-11-15T04:55:43;10.30;;;6.57;;
6640;SDS011;3356;49.360;8.266;2022-11-15T04:58:04;8.80;;;6.10;;
6640;SDS011;3356;49.360;8.266;2022-11-15T05:00:23;8.50;;;5.90;;
6640;SDS011;3356;49.360;8.266;2022-11-15T05:02:43;8.47;;;5.03;;
6640;SDS011;3356;49.360;8.266;2022-11-15T05:05:21;9.83;;;6.13;;
6640;SDS011;3356;49.360;8.266;2022-11-15T05:07:43;8.60;;;5.70;;
6640;SDS011;3356;49.360;8.266;2022-11-15T05:10:02;6.90;;;5.63;;
6640;SDS011;3356;49.360;8.266;2022-11-15T05:12:23;6.17;;;5.57;;
6640;SDS011;3356;49.360;8.266;2022-11-15T05:14:42;9.83;;;5.97;;
6640;SDS011;3356;49.360;8.266;2022-11-15T05:17:02;8.00;;;5.83;;
6640;SDS011;3356;49.360;8.266;2022-11-15T05:19:22;8.07;;;6.37;;
6640;SDS011;3356;49.360;8.266;2022-11-15T05:21:42;11.47;;;6.60;;
6640;SDS011;3356;49.360;8.266;2022-11-15T05:24:04;7.80;;;6.30;;
6640;SDS011;3356;49.360;8.266;2022-11-15T05:26:24;7.60;;;6.20;;
6640;SDS011;3356;49.360;8.266;2022-11-15T05:28:44;9.07;;;6.73;;
6640;SDS011;3356;49.360;8.266;2022-11-15T05:31:05;9.03;;;5.73;;
6640;SDS011;3356;49.360;8.266;2022-11-15T05:33:26;11.03;;;6.00;;
6640;SDS011;3356;49.360;8.266;2022-11-15T05:35:46;6.47;;;5.67;;
6640;SDS011;3356;49.360;8.266;2022-11-15T05:38:11;11.07;;;6.00;;
6640;SDS011;3356;49.360;8.266;2022-11-15T05:40:31;10.57;;;6.20;;
6640;SDS011;3356;49.360;8.266;2022-11-15T05:42:52;8.07;;;5.90;;
6640;SDS011;3356;49.360;8.266;2022-11-15T05:45:12;8.77;;;5.80;;
6640;SDS011;3356;49.360;8.266;2022-11-15T05:47:32;6.67;;;5.93;;
6640;SDS011;3356;49.360;8.266;2022-11-15T05:49:54;7.93;;;6.17;;
6640;SDS011;3356;49.360;8.266;2022-11-15T05:52:15;8.63;;;6.07;;
6640;SDS011;3356;49.360;8.266;2022-11-15T05:54:38;16.17;;;12.23;;
6640;SDS011;3356;49.360;8.266;2022-11-15T05:56:59;9.17;;;8.07;;
6640;SDS011;3356;49.360;8.266;2022-11-15T05:59:19;13.97;;;10.97;;
6640;SDS011;3356;49.360;8.266;2022-11-15T06:01:38;12.03;;;8.63;;
6640;SDS011;3356;49.360;8.266;2022-11-15T06:03:59;15.93;;;11.07;;
6640;SDS011;3356;49.360;8.266;2022-11-15T06:06:19;13.57;;;10.77;;
6640;SDS011;3356;49.360;8.266;2022-11-15T06:08:39;14.73;;;12.03;;
6640;SDS011;3356;49.360;8.266;2022-11-15T06:11:02;21.17;;;17.83;;
6640;SDS011;3356;49.360;8.266;2022-11-15T06:13:23;14.80;;;10.63;;
6640;SDS011;3356;49.360;8.266;2022-11-15T06:15:43;13.87;;;9.20;;
6640;SDS011;3356;49.360;8.266;2022-11-15T06:18:02;10.63;;;7.20;;
6640;SDS011;3356;49.360;8.266;2022-11-15T06:20:26;8.80;;;7.73;;
6640;SDS011;3356;49.360;8.266;2022-11-15T06:22:47;10.70;;;6.70;;
6640;SDS011;3356;49.360;8.266;2022-11-15T06:25:06;7.50;;;5.97;;
6640;SDS011;3356;49.360;8.266;2022-11-15T06:27:26;8.17;;;6.00;;
6640;SDS011;3356;49.360;8.266;2022-11-15T06:29:45;8.37;;;6.40;;
6640;SDS011;3356;49.360;8.266;2022-11-15T06:32:05;7.13;;;6.00;;
6640;SDS011;3356;49.360;8.266;2022-11-15T06:34:25;6.87;;;6.17;;
6640;SDS011;3356;49.360;8.266;2022-11-15T06:36:45;8.10;;;5.73;;
6640;SDS011;3356;49.360;8.266;2022-11-15T06:39:05;9.13;;;5.90;;
6640;SDS011;3356;49.360;8.266;2022-11-15T06:41:25;7.30;;;5.57;;
6640;SDS011;3356;49.360;8.266;2022-11-15T06:43:44;9.83;;;6.60;;
6640;SDS011;3356;49.360;8.266;2022-11-15T06:46:04;6.97;;;5.90;;
6640;SDS011;3356;49.360;8.266;2022-11-15T06:48:25;11.47;;;6.20;;
6640;SDS011;3356;49.360;8.266;2022-11-15T06:50:52;8.73;;;6.50;;
6640;SDS011;3356;49.360;8.266;2022-11-15T06:53:13;7.57;;;6.10;;
6640;SDS011;3356;49.360;8.266;2022-11-15T06:55:32;8.27;;;6.10;;
6640;SDS011;3356;49.360;8.266;2022-11-15T06:57:52;9.90;;;7.17;;
6640;SDS011;3356;49.360;8.266;2022-11-15T07:00:12;11.63;;;7.20;;
6640;SDS011;3356;49.360;8.266;2022-11-15T07:02:32;10.37;;;7.10;;
6640;SDS011;3356;49.360;8.266;2022-11-15T07:04:51;8.33;;;6.57;;
6640;SDS011;3356;49.360;8.266;2022-11-15T07:07:11;11.30;;;6.80;;
6640;SDS011;3356;49.360;8.266;2022-11-15T07:09:30;11.67;;;8.10;;
6640;SDS011;3356;49.360;8.266;2022-11-15T07:11:50;11.43;;;9.47;;
6640;SDS011;3356;49.360;8.266;2022-11-15T07:14:10;12.47;;;9.10;;
6640;SDS011;3356;49.360;8.266;2022-11-15T07:16:29;13.17;;;10.00;;
6640;SDS011;3356;49.360;8.266;2022-11-15T07:18:48;14.97;;;8.83;;
6640;SDS011;3356;49.360;8.266;2022-11-15T07:21:09;12.23;;;9.10;;
6640;SDS011;3356;49.360;8.266;2022-11-15T07:23:30;14.20;;;9.40;;
6640;SDS011;3356;49.360;8.266;2022-11-15T07:25:49;16.63;;;10.23;;
6640;SDS011;3356;49.360;8.266;2022-11-15T07:28:09;15.00;;;10.67;;
6640;SDS011;3356;49.360;8.266;2022-11-15T07:30:29;14.17;;;9.67;;
6640;SDS011;3356;49.360;8.266;2022-11-15T07:32:58;15.83;;;10.00;;
6640;SDS011;3356;49.360;8.266;2022-11-15T07:35:19;13.77;;;9.23;;
6640;SDS011;3356;49.360;8.266;2022-11-15T07:37:38;11.53;;;8.80;;
6640;SDS011;3356;49.360;8.266;2022-11-15T07:39:58;25.80;;;17.40;;
6640;SDS011;3356;49.360;8.266;2022-11-15T07:42:17;13.20;;;10.70;;
6640;SDS011;3356;49.360;8.266;2022-11-15T07:44:56;11.30;;;8.43;;
6640;SDS011;3356;49.360;8.266;2022-11-15T07:47:16;12.07;;;7.60;;
6640;SDS011;3356;49.360;8.266;2022-11-15T07:49:36;10.27;;;7.67;;
6640;SDS011;3356;49.360;8.266;2022-11-15T07:51:55;11.23;;;8.40;;
6640;SDS011;3356;49.360;8.266;2022-11-15T07:54:15;9.90;;;7.93;;
6640;SDS011;3356;49.360;8.266;2022-11-15T07:56:35;11.60;;;7.57;;
6640;SDS011;3356;49.360;8.266;2022-11-15T07:58:54;10.23;;;7.30;;
6640;SDS011;3356;49.360;8.266;2022-11-15T08:01:14;11.07;;;7.73;;
6640;SDS011;3356;49.360;8.266;2022-11-15T08:03:33;10.60;;;8.30;;
6640;SDS011;3356;49.360;8.266;2022-11-15T08:05:52;12.87;;;9.30;;
6640;SDS011;3356;49.360;8.266;2022-11-15T08:08:12;11.97;;;7.97;;
6640;SDS011;3356;49.360;8.266;2022-11-15T08:10:31;10.33;;;7.50;;
6640;SDS011;3356;49.360;8.266;2022-11-15T08:13:02;12.80;;;7.30;;
6640;SDS011;3356;49.360;8.266;2022-11-15T08:15:24;8.23;;;6.80;;
6640;SDS011;3356;49.360;8.266;2022-11-15T08:17:44;10.00;;;7.13;;
6640;SDS011;3356;49.360;8.266;2022-11-15T08:20:03;8.30;;;7.07;;
6640;SDS011;3356;49.360;8.266;2022-11-15T08:22:23;10.10;;;7.13;;
6640;SDS011;3356;49.360;8.266;2022-11-15T08:24:43;9.13;;;6.83;;
6640;SDS011;3356;49.360;8.266;2022-11-15T08:27:03;10.40;;;6.60;;
6640;SDS011;3356;49.360;8.266;2022-11-15T08:29:23;8.27;;;6.57;;
6640;SDS011;3356;49.360;8.266;2022-11-15T08:31:42;9.67;;;6.57;;
6640;SDS011;3356;49.360;8.266;2022-11-15T08:34:02;9.37;;;6.33;;
6640;SDS011;3356;49.360;8.266;2022-11-15T08:36:22;8.77;;;6.70;;
6640;SDS011;3356;49.360;8.266;2022-11-15T08:38:42;10.27;;;6.63;;
6640;SDS011;3356;49.360;8.266;2022-11-15T08:41:03;7.53;;;6.37;;
6640;SDS011;3356;49.360;8.266;2022-11-15T08:43:23;9.00;;;6.60;;
6640;SDS011;3356;49.360;8.266;2022-11-15T08:45:43;12.17;;;6.97;;
6640;SDS011;3356;49.360;8.266;2022-11-15T08:48:03;7.80;;;6.73;;
6640;SDS011;3356;49.360;8.266;2022-11-15T08:50:23;10.97;;;6.90;;
6640;SDS011;3356;49.360;8.266;2022-11-15T08:52:42;7.77;;;6.40;;
6640;SDS011;3356;49.360;8.266;2022-11-15T08:55:03;11.60;;;7.17;;
6640;SDS011;3356;49.360;8.266;2022-11-15T08:57:22;8.90;;;6.33;;
6640;SDS011;3356;49.360;8.266;2022-11-15T08:59:42;10.67;;;7.30;;
6640;SDS011;3356;49.360;8.266;2022-11-15T09:02:02;13.47;;;6.27;;
6640;SDS011;3356;49.360;8.266;2022-11-15T09:04:22;7.63;;;6.33;;
6640;SDS011;3356;49.360;8.266;2022-11-15T09:06:41;13.80;;;6.40;;
6640;SDS011;3356;49.360;8.266;2022-11-15T09:09:01;10.03;;;7.77;;
6640;SDS011;3356;49.360;8.266;2022-11-15T09:11:22;8.43;;;5.97;;
6640;SDS011;3356;49.360;8.266;2022-11-15T09:13:42;8.23;;;6.43;;
6640;SDS011;3356;49.360;8.266;2022-11-15T09:16:02;15.13;;;6.97;;
6640;SDS011;3356;49.360;8.266;2022-11-15T09:18:22;10.53;;;7.93;;
6640;SDS011;3356;49.360;8.266;2022-11-15T09:20:42;8.90;;;6.93;;
6640;SDS011;3356;49.360;8.266;2022-11-15T09:23:02;7.33;;;6.53;;
6640;SDS011;3356;49.360;8.266;2022-11-15T09:25:22;11.73;;;8.00;;
6640;SDS011;3356;49.360;8.266;2022-11-15T09:27:42;11.30;;;7.17;;
6640;SDS011;3356;49.360;8.266;2022-11-15T09:30:01;9.57;;;6.33;;
6640;SDS011;3356;49.360;8.266;2022-11-15T09:32:22;9.13;;;7.30;;
6640;SDS011;3356;49.360;8.266;2022-11-15T09:34:42;10.03;;;7.73;;
6640;SDS011;3356;49.360;8.266;2022-11-15T09:37:01;17.93;;;9.60;;
6640;SDS011;3356;49.360;8.266;2022-11-15T09:39:21;13.20;;;10.27;;
6640;SDS011;3356;49.360;8.266;2022-11-15T09:41:47;10.77;;;7.43;;
6640;SDS011;3356;49.360;8.266;2022-11-15T09:46:58;13.00;;;7.43;;
6640;SDS011;3356;49.360;8.266;2022-11-15T09:49:03;11.63;;;7.73;;
6640;SDS011;3356;49.360;8.266;2022-11-15T09:51:24;10.70;;;7.30;;
6640;SDS011;3356;49.360;8.266;2022-11-15T09:53:33;10.23;;;6.70;;
6640;SDS011;3356;49.360;8.266;2022-11-15T09:58:39;11.10;;;7.53;;
6640;SDS011;3356;49.360;8.266;2022-11-15T10:00:56;10.63;;;7.07;;
6640;SDS011;3356;49.360;8.266;2022-11-15T10:05:19;11.07;;;7.43;;
6640;SDS011;3356;49.360;8.266;2022-11-15T10:07:40;13.60;;;8.17;;
6640;SDS011;3356;49.360;8.266;2022-11-15T10:10:49;11.40;;;7.77;;
6640;SDS011;3356;49.360;8.266;2022-11-15T10:12:37;11.63;;;7.60;;
6640;SDS011;3356;49.360;8.266;2022-11-15T10:14:38;11.23;;;7.93;;
6640;SDS011;3356;49.360;8.266;2022-11-15T10:17:48;10.77;;;7.60;;
6640;SDS011;3356;49.360;8.266;2022-11-15T10:22:07;8.70;;;7.70;;
6640;SDS011;3356;49.360;8.266;2022-11-15T10:24:25;9.70;;;7.90;;
6640;SDS011;3356;49.360;8.266;2022-11-15T10:26:31;12.47;;;8.27;;
6640;SDS011;3356;49.360;8.266;2022-11-15T10:28:32;13.43;;;7.93;;
6640;SDS011;3356;49.360;8.266;2022-11-15T10:30:38;12.60;;;8.10;;
6640;SDS011;3356;49.360;8.266;2022-11-15T10:32:42;7.67;;;6.80;;
6640;SDS011;3356;49.360;8.266;2022-11-15T10:34:44;13.90;;;7.97;;
6640;SDS011;3356;49.360;8.266;2022-11-15T10:36:56;10.80;;;7.90;;
6640;SDS011;3356;49.360;8.266;2022-11-15T10:38:59;9.73;;;6.40;;
6640;SDS011;3356;49.360;8.266;2022-11-15T10:41:06;9.93;;;7.07;;
6640;SDS011;3356;49.360;8.266;2022-11-15T10:43:15;10.13;;;8.10;;
6640;SDS011;3356;49.360;8.266;2022-11-15T10:45:29;10.20;;;7.27;;
6640;SDS011;3356;49.360;8.266;2022-11-15T10:47:32;10.00;;;7.47;;
6640;SDS011;3356;49.360;8.266;2022-11-15T10:49:34;10.57;;;7.37;;
6640;SDS011;3356;49.360;8.266;2022-11-15T10:51:36;12.57;;;7.77;;
6640;SDS011;3356;49.360;8.266;2022-11-15T10:53:45;8.53;;;6.30;;
6640;SDS011;3356;49.360;8.266;2022-11-15T10:55:47;7.90;;;7.10;;
6640;SDS011;3356;49.360;8.266;2022-11-15T10:57:54;8.97;;;6.60;;
6640;SDS011;3356;49.360;8.266;2022-11-15T11:00:00;9.03;;;6.77;;
6640;SDS011;3356;49.360;8.266;2022-11-15T11:02:27;8.10;;;7.07;;
6640;SDS011;3356;49.360;8.266;2022-11-15T11:04:34;6.93;;;6.23;;
6640;SDS011;3356;49.360;8.266;2022-11-15T11:06:51;6.23;;;5.63;;
6640;SDS011;3356;49.360;8.266;2022-11-15T11:10:56;8.20;;;5.23;;
6640;SDS011;3356;49.360;8.266;2022-11-15T11:13:22;8.03;;;5.73;;
6640;SDS011;3356;49.360;8.266;2022-11-15T11:15:33;8.73;;;5.03;;
6640;SDS011;3356;49.360;8.266;2022-11-15T11:22:22;9.93;;;5.00;;
6640;SDS011;3356;49.360;8.266;2022-11-15T11:26:40;5.77;;;4.43;;
6640;SDS011;3356;49.360;8.266;2022-11-15T11:28:49;5.47;;;4.60;;
6640;SDS011;3356;49.360;8.266;2022-11-15T11:35:46;5.50;;;4.53;;
6640;SDS011;3356;49.360;8.266;2022-11-15T11:40:39;5.80;;;4.00;;
6640;SDS011;3356;49.360;8.266;2022-11-15T11:47:24;5.43;;;3.20;;
6640;SDS011;3356;49.360;8.266;2022-11-15T11:54:03;5.23;;;4.10;;
6640;SDS011;3356;49.360;8.266;2022-11-15T11:56:18;4.90;;;3.57;;
6640;SDS011;3356;49.360;8.266;2022-11-15T12:03:18;5.53;;;4.40;;
6640;SDS011;3356;49.360;8.266;2022-11-15T12:05:44;5.33;;;4.17;;
6640;SDS011;3356;49.360;8.266;2022-11-15T12:07:49;5.20;;;4.40;;
6640;SDS011;3356;49.360;8.266;2022-11-15T12:14:29;5.00;;;3.97;;
6640;SDS011;3356;49.360;8.266;2022-11-15T12:16:32;4.43;;;3.77;;
6640;SDS011;3356;49.360;8.266;2022-11-15T12:18:34;4.73;;;4.03;;
6640;SDS011;3356;49.360;8.266;2022-11-15T12:20:36;8.87;;;4.53;;
6640;SDS011;3356;49.360;8.266;2022-11-15T12:23:03;4.13;;;3.67;;
6640;SDS011;3356;49.360;8.266;2022-11-15T12:25:14;5.00;;;4.27;;
6640;SDS011;3356;49.360;8.266;2022-11-15T12:27:38;4.40;;;3.90;;
6640;SDS011;3356;49.360;8.266;2022-11-15T12:29:45;4.47;;;4.03;;
6640;SDS011;3356;49.360;8.266;2022-11-15T12:31:53;4.33;;;3.80;;
6640;SDS011;3356;49.360;8.266;2022-11-15T12:33:57;7.70;;;3.93;;
6640;SDS011;3356;49.360;8.266;2022-11-15T12:36:02;7.10;;;4.03;;
6640;SDS011;3356;49.360;8.266;2022-11-15T12:38:10;5.27;;;4.07;;
6640;SDS011;3356;49.360;8.266;2022-11-15T12:40:17;4.93;;;3.60;;
6640;SDS011;3356;49.360;8.266;2022-11-15T12:42:40;4.60;;;3.53;;
6640;SDS011;3356;49.360;8.266;2022-11-15T12:44:57;5.50;;;3.53;;
6640;SDS011;3356;49.360;8.266;2022-11-15T12:53:42;4.17;;;3.77;;
6640;SDS011;3356;49.360;8.266;2022-11-15T12:55:43;4.17;;;3.77;;
6640;SDS011;3356;49.360;8.266;2022-11-15T12:58:59;4.27;;;3.77;;
6640;SDS011;3356;49.360;8.266;2022-11-15T13:00:53;4.40;;;4.00;;
6640;SDS011;3356;49.360;8.266;2022-11-15T13:03:12;4.90;;;3.87;;
6640;SDS011;3356;49.360;8.266;2022-11-15T13:05:57;4.00;;;3.60;;
6640;SDS011;3356;49.360;8.266;2022-11-15T13:09:52;4.20;;;3.80;;
6640;SDS011;3356;49.360;8.266;2022-11-15T13:11:56;5.80;;;4.07;;
6640;SDS011;3356;49.360;8.266;2022-11-15T13:14:34;7.43;;;4.40;;
6640;SDS011;3356;49.360;8.266;2022-11-15T13:16:38;5.17;;;4.40;;
6640;SDS011;3356;49.360;8.266;2022-11-15T13:18:39;7.43;;;5.23;;
6640;SDS011;3356;49.360;8.266;2022-11-15T13:20:44;6.20;;;4.80;;
6640;SDS011;3356;49.360;8.266;2022-11-15T13:24:52;6.63;;;4.03;;
6640;SDS011;3356;49.360;8.266;2022-11-15T13:26:54;6.97;;;4.43;;
6640;SDS011;3356;49.360;8.266;2022-11-15T13:28:55;5.57;;;3.83;;
6640;SDS011;3356;49.360;8.266;2022-11-15T13:30:57;5.30;;;3.90;;
6640;SDS011;3356;49.360;8.266;2022-11-15T13:33:07;4.37;;;3.90;;
6640;SDS011;3356;49.360;8.266;2022-11-15T13:35:27;8.53;;;4.10;;
6640;SDS011;3356;49.360;8.266;2022-11-15T13:37:29;6.20;;;3.77;;
6640;SDS011;3356;49.360;8.266;2022-11-15T13:39:32;6.13;;;4.70;;
6640;SDS011;3356;49.360;8.266;2022-11-15T13:41:35;6.50;;;3.80;;
6640;SDS011;3356;49.360;8.266;2022-11-15T13:43:44;8.23;;;4.77;;
6640;SDS011;3356;49.360;8.266;2022-11-15T13:46:03;5.87;;;4.23;;
6640;SDS011;3356;49.360;8.266;2022-11-15T13:48:16;6.10;;;4.13;;
6640;SDS011;3356;49.360;8.266;2022-11-15T13:50:17;7.63;;;4.20;;
6640;SDS011;3356;49.360;8.266;2022-11-15T13:52:21;5.33;;;3.97;;
6640;SDS011;3356;49.360;8.266;2022-11-15T13:54:25;7.43;;;4.20;;
6640;SDS011;3356;49.360;8.266;2022-11-15T13:56:27;6.83;;;4.60;;
6640;SDS011;3356;49.360;8.266;2022-11-15T13:58:31;5.63;;;4.17;;
6640;SDS011;3356;49.360;8.266;2022-11-15T14:02:43;5.83;;;5.13;;
6640;SDS011;3356;49.360;8.266;2022-11-15T14:04:48;6.73;;;4.37;;
6640;SDS011;3356;49.360;8.266;2022-11-15T14:06:53;6.03;;;4.23;;
6640;SDS011;3356;49.360;8.266;2022-11-15T14:09:03;4.67;;;3.70;;
6640;SDS011;3356;49.360;8.266;2022-11-15T14:11:24;5.17;;;3.60;;
6640;SDS011;3356;49.360;8.266;2022-11-15T14:13:28;4.60;;;3.73;;
6640;SDS011;3356;49.360;8.266;2022-11-15T14:15:35;5.67;;;3.70;;
6640;SDS011;3356;49.360;8.266;2022-11-15T14:17:38;4.33;;;3.57;;
6640;SDS011;3356;49.360;8.266;2022-11-15T14:19:40;5.97;;;3.67;;
6640;SDS011;3356;49.360;8.266;2022-11-15T14:24:16;8.30;;;3.77;;
6640;SDS011;3356;49.360;8.266;2022-11-15T14:26:29;5.70;;;3.70;;
6640;SDS011;3356;49.360;8.266;2022-11-15T14:28:32;10.77;;;7.43;;
6640;SDS011;3356;49.360;8.266;2022-11-15T14:30:38;13.27;;;11.23;;
6640;SDS011;3356;49.360;8.266;2022-11-15T14:32:44;7.43;;;6.10;;
6640;SDS011;3356;49.360;8.266;2022-11-15T14:34:49;7.43;;;5.10;;
6640;SDS011;3356;49.360;8.266;2022-11-15T14:36:54;6.43;;;3.80;;
6640;SDS011;3356;49.360;8.266;2022-11-15T14:38:55;7.17;;;4.10;;
6640;SDS011;3356;49.360;8.266;2022-11-15T14:40:56;7.73;;;4.10;;
6640;SDS011;3356;49.360;8.266;2022-11-15T14:42:58;6.47;;;3.60;;
6640;SDS011;3356;49.360;8.266;2022-11-15T14:45:00;7.93;;;3.87;;
6640;SDS011;3356;49.360;8.266;2022-11-15T14:47:01;5.47;;;3.90;;
6640;SDS011;3356;49.360;8.266;2022-11-15T14:49:03;5.43;;;3.90;;
6640;SDS011;3356;49.360;8.266;2022-11-15T14:51:09;5.47;;;3.77;;
6640;SDS011;3356;49.360;8.266;2022-11-15T14:53:15;5.30;;;3.70;;
6640;SDS011;3356;49.360;8.266;2022-11-15T14:55:18;5.77;;;4.40;;
6640;SDS011;3356;49.360;8.266;2022-11-15T14:57:23;6.07;;;4.80;;
6640;SDS011;3356;49.360;8.266;2022-11-15T14:59:25;7.00;;;4.37;;
6640;SDS011;3356;49.360;8.266;2022-11-15T15:01:26;7.03;;;5.23;;
6640;SDS011;3356;49.360;8.266;2022-11-15T15:03:27;9.30;;;5.17;;
6640;SDS011;3356;49.360;8.266;2022-11-15T15:05:32;9.77;;;6.77;;
6640;SDS011;3356;49.360;8.266;2022-11-15T15:07:38;8.63;;;5.80;;
6640;SDS011;3356;49.360;8.266;2022-11-15T15:09:39;6.00;;;4.80;;
6640;SDS011;3356;49.360;8.266;2022-11-15T15:11:41;6.33;;;4.77;;
6640;SDS011;3356;49.360;8.266;2022-11-15T15:13:42;5.40;;;4.40;;
6640;SDS011;3356;49.360;8.266;2022-11-15T15:15:43;4.70;;;4.00;;
6640;SDS011;3356;49.360;8.266;2022-11-15T15:17:44;4.80;;;3.97;;
6640;SDS011;3356;49.360;8.266;2022-11-15T15:19:46;4.93;;;3.93;;
6640;SDS011;3356;49.360;8.266;2022-11-15T15:21:47;14.60;;;8.37;;
6640;SDS011;3356;49.360;8.266;2022-11-15T15:23:48;19.00;;;9.00;;
6640;SDS011;3356;49.360;8.266;2022-11-15T15:25:49;9.90;;;6.53;;
6640;SDS011;3356;49.360;8.266;2022-11-15T15:27:50;7.67;;;5.13;;
6640;SDS011;3356;49.360;8.266;2022-11-15T15:29:52;6.67;;;4.63;;
6640;SDS011;3356;49.360;8.266;2022-11-15T15:31:53;6.97;;;4.73;;